createdAt,value
2023-04-16T00:03:56.589Z,2.10
2023-04-16T00:09:18.712Z,2.58
2023-04-16T00:14:40.574Z,2.15
2023-04-16T00:20:02.716Z,2.30
2023-04-16T00:25:24.532Z,4.13
2023-04-16T00:30:46.389Z,1.98
2023-04-16T00:36:08.243Z,2.67
2023-04-16T00:41:30.129Z,2.97
2023-04-16T00:46:52.081Z,2.58
2023-04-16T00:52:13.937Z,1.67
2023-04-16T00:57:35.796Z,1.33
2023-04-16T01:02:57.712Z,2.47
2023-04-16T01:08:21.737Z,2.33
2023-04-16T01:13:43.639Z,2.58
2023-04-16T01:19:05.675Z,2.10
2023-04-16T01:24:27.558Z,1.98
2023-04-16T01:29:49.519Z,3.05
2023-04-16T01:35:11.286Z,2.33
2023-04-16T01:40:33.089Z,1.63
2023-04-16T01:46:11.449Z,2.95
2023-04-16T01:51:33.674Z,4.32
2023-04-16T01:56:55.882Z,2.67
2023-04-16T02:02:18.243Z,1.23
2023-04-16T02:07:40.354Z,2.10
2023-04-16T02:13:02.301Z,4.03
2023-04-16T02:18:24.147Z,2.50
2023-04-16T02:23:48.148Z,1.88
2023-04-16T02:29:10.094Z,0.93
2023-04-16T02:34:33.970Z,1.13
2023-04-16T02:39:56.124Z,1.05
2023-04-16T02:45:18.152Z,2.53
2023-04-16T02:50:40.199Z,0.60
2023-04-16T02:56:02.204Z,2.35
2023-04-16T03:01:24.068Z,2.28
2023-04-16T03:06:45.902Z,2.08
2023-04-16T03:12:07.690Z,1.85
2023-04-16T03:17:29.599Z,1.27
2023-04-16T03:22:52.508Z,1.52
2023-04-16T03:28:15.059Z,1.85
2023-04-16T03:33:37.360Z,1.73
2023-04-16T03:38:59.718Z,1.95
2023-04-16T03:44:21.638Z,1.88
2023-04-16T03:49:43.649Z,2.17
2023-04-16T03:55:06.046Z,1.67
2023-04-16T04:00:28.948Z,3.03
2023-04-16T04:05:51.021Z,1.83
2023-04-16T04:11:12.791Z,2.05
2023-04-16T04:16:35.038Z,4.40
2023-04-16T04:21:56.920Z,4.15
2023-04-16T04:27:18.709Z,1.85
2023-04-16T04:32:40.785Z,1.48
2023-04-16T04:38:03.316Z,2.05
2023-04-16T04:43:25.276Z,2.65
2023-04-16T04:48:47.121Z,1.90
2023-04-16T04:54:08.966Z,2.38
2023-04-16T04:59:31.032Z,2.38
2023-04-16T05:04:52.804Z,1.25
2023-04-16T05:10:14.928Z,1.90
2023-04-16T05:15:36.866Z,1.95
2023-04-16T05:20:58.774Z,1.08
2023-04-16T05:26:21.032Z,1.70
2023-04-16T05:31:42.934Z,1.63
2023-04-16T05:37:04.739Z,2.85
2023-04-16T05:42:26.560Z,1.75
2023-04-16T05:47:48.376Z,2.80
2023-04-16T05:53:10.259Z,1.10
2023-04-16T05:58:32.147Z,2.50
2023-04-16T06:03:54.155Z,1.42
2023-04-16T06:09:16.182Z,1.10
2023-04-16T06:14:37.942Z,2.50
2023-04-16T06:20:00.231Z,1.65
2023-04-16T06:25:21.984Z,3.85
2023-04-16T06:30:44.727Z,2.63
2023-04-16T06:36:06.910Z,1.75
2023-04-16T06:41:28.987Z,2.80
2023-04-16T06:46:51.351Z,2.10
2023-04-16T06:52:13.364Z,0.88
2023-04-16T06:57:36.933Z,4.03
2023-04-16T07:03:01.580Z,4.47
2023-04-16T07:08:23.650Z,2.95
2023-04-16T07:13:45.415Z,2.70
2023-04-16T07:19:07.334Z,10.57
2023-04-16T07:24:29.172Z,3.33
2023-04-16T07:29:51.140Z,3.42
2023-04-16T07:35:13.131Z,4.95
2023-04-16T07:40:35.793Z,6.05
2023-04-16T07:45:57.627Z,5.32
2023-04-16T07:51:19.645Z,9.35
2023-04-16T07:56:41.465Z,3.30
2023-04-16T08:02:05.045Z,6.25
2023-04-16T08:07:27.026Z,3.00
2023-04-16T08:12:48.943Z,2.70
2023-04-16T08:18:15.805Z,8.63
2023-04-16T08:23:37.658Z,6.20
2023-04-16T08:28:59.402Z,5.70
2023-04-16T08:34:21.316Z,3.58
2023-04-16T08:39:43.099Z,3.85
2023-04-16T08:45:17.776Z,5.45
2023-04-16T08:50:41.419Z,7.57
2023-04-16T08:56:08.883Z,7.18
2023-04-16T09:06:54.109Z,4.90
2023-04-16T09:12:16.053Z,7.05
2023-04-16T09:17:38.359Z,2.97
2023-04-16T09:23:00.155Z,3.30
2023-04-16T09:28:41.147Z,4.68
2023-04-16T09:34:08.369Z,5.03
2023-04-16T09:39:30.152Z,2.47
2023-04-16T09:44:52.718Z,7.38
2023-04-16T09:50:18.108Z,4.15
2023-04-16T09:55:40.578Z,4.57
2023-04-16T10:01:03.479Z,4.22
2023-04-16T10:06:27.892Z,7.00
2023-04-16T10:11:50.071Z,2.33
2023-04-16T10:17:12.250Z,9.68
2023-04-16T10:22:34.934Z,8.70
2023-04-16T10:27:57.667Z,8.07
2023-04-16T10:33:24.352Z,5.97
2023-04-16T10:38:52.908Z,4.90
2023-04-16T10:44:17.992Z,5.00
2023-04-16T10:49:40.945Z,6.55
2023-04-16T10:55:02.738Z,7.13
2023-04-16T11:00:24.575Z,3.17
2023-04-16T11:05:49.415Z,3.60
2023-04-16T11:11:11.252Z,4.73
2023-04-16T11:16:33.372Z,3.78
2023-04-16T11:21:56.150Z,2.50
2023-04-16T11:27:17.921Z,3.47
2023-04-16T11:32:40.210Z,10.77
2023-04-16T11:38:06.785Z,4.15
2023-04-16T11:43:28.646Z,4.88
2023-04-16T11:48:54.171Z,4.32
2023-04-16T11:54:22.686Z,12.18
2023-04-16T12:00:01.473Z,4.22
2023-04-16T12:05:35.297Z,9.23
2023-04-16T12:10:58.307Z,10.40
2023-04-16T12:16:21.318Z,5.03
2023-04-16T12:21:45.165Z,4.28
2023-04-16T12:27:07.236Z,4.82
2023-04-16T12:32:29.059Z,3.17
2023-04-16T12:37:50.954Z,4.05
2023-04-16T12:43:13.368Z,3.60
2023-04-16T12:48:35.649Z,4.70
2023-04-16T12:53:57.716Z,6.50
2023-04-16T12:59:19.478Z,4.05
2023-04-16T13:04:41.352Z,3.28
2023-04-16T13:10:03.289Z,2.95
2023-04-16T13:15:25.092Z,3.60
2023-04-16T13:20:46.939Z,3.50
2023-04-16T13:26:08.761Z,3.13
2023-04-16T13:31:30.989Z,3.67
2023-04-16T13:36:52.809Z,3.72
2023-04-16T13:42:14.697Z,3.13
2023-04-16T13:47:37.081Z,3.00
2023-04-16T13:52:58.976Z,4.43
2023-04-16T13:58:21.167Z,3.90
2023-04-16T14:03:43.041Z,3.15
2023-04-16T14:09:04.905Z,4.85
2023-04-16T14:14:26.924Z,3.63
2023-04-16T14:19:48.961Z,3.95
2023-04-16T14:25:10.741Z,4.72
2023-04-16T14:30:32.672Z,3.83
2023-04-16T14:35:55.150Z,1.77
2023-04-16T14:41:17.106Z,1.95
2023-04-16T14:46:38.910Z,5.03
2023-04-16T14:52:02.830Z,3.47
2023-04-16T14:57:24.884Z,3.10
2023-04-16T15:02:48.536Z,2.88
2023-04-16T15:08:10.518Z,2.63
2023-04-16T15:13:34.315Z,2.92
2023-04-16T15:18:56.101Z,2.58
2023-04-16T15:24:18.034Z,3.60
2023-04-16T15:29:39.828Z,2.55
2023-04-16T15:35:03.511Z,6.95
2023-04-16T15:40:25.540Z,3.85
2023-04-16T15:45:47.367Z,5.97
2023-04-16T15:51:09.485Z,5.35
2023-04-16T15:56:31.821Z,5.47
2023-04-16T16:01:53.819Z,4.68
2023-04-16T16:07:19.998Z,3.95
2023-04-16T16:12:42.001Z,3.17
2023-04-16T16:18:03.962Z,3.30
2023-04-16T16:23:26.275Z,7.40
2023-04-16T16:28:48.287Z,5.70
2023-04-16T16:34:17.071Z,3.83
2023-04-16T16:39:42.114Z,4.10
2023-04-16T16:45:06.387Z,5.38
2023-04-16T16:50:28.394Z,4.78
2023-04-16T16:55:50.378Z,2.72
2023-04-16T17:01:12.305Z,5.90
2023-04-16T17:06:34.322Z,5.40
2023-04-16T17:11:57.155Z,3.65
2023-04-16T17:17:19.260Z,8.35
2023-04-16T17:22:41.345Z,5.43
2023-04-16T17:28:03.456Z,6.07
2023-04-16T17:33:25.341Z,5.50
2023-04-16T17:38:47.155Z,3.72
2023-04-16T17:44:11.589Z,4.07
2023-04-16T17:49:33.749Z,3.33
2023-04-16T17:55:00.719Z,4.85
2023-04-16T18:00:22.604Z,2.65
2023-04-16T18:05:47.414Z,4.13
2023-04-16T18:11:09.430Z,3.35
2023-04-16T18:16:31.592Z,2.55
2023-04-16T18:21:53.354Z,5.15
2023-04-16T18:27:15.322Z,3.22
2023-04-16T18:32:39.658Z,4.07
2023-04-16T18:38:11.659Z,1.95
2023-04-16T18:43:33.489Z,4.25
2023-04-16T18:48:55.388Z,2.08
2023-04-16T18:54:17.234Z,12.18
2023-04-16T18:59:39.027Z,13.65
2023-04-16T19:05:01.312Z,18.65
2023-04-16T19:10:23.106Z,18.23
2023-04-16T19:15:44.992Z,21.98
2023-04-16T19:21:07.453Z,20.92
2023-04-16T19:26:29.444Z,15.20
2023-04-16T19:31:51.584Z,8.70
2023-04-16T19:37:13.564Z,9.57
2023-04-16T19:42:35.687Z,10.07
2023-04-16T19:47:57.562Z,12.98
2023-04-16T19:53:19.352Z,7.85
2023-04-16T19:58:41.176Z,15.77
2023-04-16T20:04:03.120Z,10.13
2023-04-16T20:09:25.607Z,9.35
2023-04-16T20:14:47.724Z,6.72
2023-04-16T20:20:11.247Z,9.98
2023-04-16T20:25:33.076Z,9.77
2023-04-16T20:30:55.135Z,9.02
2023-04-16T20:36:16.912Z,4.65
2023-04-16T20:41:44.038Z,7.47
2023-04-16T20:47:13.261Z,9.27
2023-04-16T20:52:35.059Z,8.35
2023-04-16T20:57:56.913Z,8.60
2023-04-16T21:03:19.964Z,6.82
2023-04-16T21:08:41.780Z,7.90
2023-04-16T21:14:03.931Z,12.65
2023-04-16T21:19:25.794Z,15.23
2023-04-16T21:24:47.574Z,8.48
2023-04-16T21:30:09.884Z,7.78
2023-04-16T21:35:33.366Z,7.88
2023-04-16T21:40:56.044Z,8.57
2023-04-16T21:46:17.945Z,7.20
2023-04-16T21:51:40.686Z,5.88
2023-04-16T21:57:02.846Z,6.00
2023-04-16T22:02:24.897Z,4.95
2023-04-16T22:07:47.020Z,5.90
2023-04-16T22:13:12.897Z,8.07
2023-04-16T22:18:34.712Z,5.93
2023-04-16T22:23:56.499Z,6.70
2023-04-16T22:29:18.343Z,5.57
2023-04-16T22:34:40.214Z,5.88
2023-04-16T22:40:02.181Z,6.35
2023-04-16T22:45:24.030Z,6.97
2023-04-16T22:50:48.793Z,6.07
2023-04-16T22:56:11.049Z,8.20
2023-04-16T23:01:34.397Z,4.50
2023-04-16T23:06:56.505Z,8.18
2023-04-16T23:12:18.348Z,5.40
2023-04-16T23:17:40.430Z,8.90
2023-04-16T23:23:02.205Z,7.07
2023-04-16T23:28:23.946Z,5.13
2023-04-16T23:33:45.729Z,5.60
2023-04-16T23:39:07.510Z,5.85
2023-04-16T23:44:29.286Z,6.10
2023-04-16T23:49:51.032Z,7.80
2023-04-16T23:55:13.139Z,5.43
